Time;durP1;ratioP1;P1;durP2;ratioP2;P2;SDS_P1;SDS_P2;PMS_P1;PMS_P2;Temp;Humidity;BMP_temperature;BMP_pressure;BME280_temperature;BME280_humidity;BME280_pressure;Samples;Min_cycle;Max_cycle;Signal;HPM_P1;HPM_P2
2021/01/22 00:01:09;;;;;;;4.03;3.73;;;9.20;99.90;;;4.90;100.00;96292.22;5038192;28;20227;-77
2021/01/22 00:03:55;;;;;;;3.53;3.20;;;9.10;99.90;;;4.44;100.00;96349.41;5038965;28;20281;-77
2021/01/22 00:06:40;;;;;;;3.40;3.20;;;9.10;99.90;;;4.18;100.00;96381.06;5037549;28;20258;-75
2021/01/22 00:09:25;;;;;;;3.40;3.20;;;9.00;99.90;;;4.09;100.00;96386.84;5041153;28;20683;-78
2021/01/22 00:12:10;;;;;;;3.50;3.20;;;8.80;99.90;;;4.06;100.00;96397.31;5035961;28;20234;-77
2021/01/22 00:14:56;;;;;;;3.27;3.03;;;8.70;99.90;;;3.97;100.00;96414.09;5044942;28;20277;-77
2021/01/22 00:17:42;;;;;;;3.77;3.47;;;8.60;99.90;;;3.95;100.00;96426.16;5041418;28;20206;-76
2021/01/22 00:20:27;;;;;;;5.00;3.93;;;8.40;99.90;;;3.85;100.00;96451.56;5046178;28;20269;-76
2021/01/22 00:23:12;;;;;;;3.93;3.60;;;8.30;99.90;;;3.77;100.00;96473.47;5044583;28;20242;-77
2021/01/22 00:25:58;;;;;;;3.93;3.50;;;8.20;99.90;;;3.69;100.00;96474.78;5047523;28;20198;-76
2021/01/22 00:28:43;;;;;;;4.27;3.87;;;8.10;99.90;;;3.68;100.00;96498.69;5045580;28;20722;-77
2021/01/22 00:31:29;;;;;;;4.83;4.17;;;7.90;99.90;;;3.47;100.00;96503.53;5051822;28;20226;-76
2021/01/22 00:34:14;;;;;;;7.03;6.33;;;7.80;99.90;;;3.42;100.00;96512.41;5047819;28;20210;-77
2021/01/22 00:36:59;;;;;;;6.83;5.00;;;7.70;99.90;;;3.38;100.00;96536.50;5039730;28;20654;-77
2021/01/22 00:39:45;;;;;;;4.63;3.70;;;7.60;99.90;;;3.33;100.00;96564.91;5048420;28;20207;-76
2021/01/22 00:42:29;;;;;;;3.43;3.23;;;7.50;99.90;;;3.28;100.00;96578.00;5046133;28;20235;-77
2021/01/22 00:45:15;;;;;;;3.67;3.40;;;7.40;99.90;;;3.22;100.00;96603.09;5040686;28;20427;-77
2021/01/22 00:48:01;;;;;;;3.07;2.87;;;7.20;99.90;;;3.04;100.00;96641.66;5039540;28;20266;-77
2021/01/22 00:50:47;;;;;;;3.10;2.90;;;7.10;99.90;;;2.85;100.00;96661.56;5035285;28;20218;-77
2021/01/22 00:53:32;;;;;;;2.90;2.70;;;7.00;99.90;;;2.76;100.00;96685.91;5041257;28;20250;-77
2021/01/22 00:56:17;;;;;;;3.00;2.80;;;6.90;99.90;;;2.75;100.00;96715.72;5037028;28;20205;-77
2021/01/22 00:59:02;;;;;;;3.00;2.70;;;6.80;99.90;;;2.57;100.00;96747.44;5047324;28;20257;-77
2021/01/22 01:01:47;;;;;;;2.93;2.70;;;6.70;99.90;;;2.53;100.00;96787.63;5048555;28;20231;-77
2021/01/22 01:04:36;;;;;;;2.33;2.17;;;6.60;99.90;;;2.45;100.00;96805.09;5045551;28;20237;-77
2021/01/22 01:07:22;;;;;;;2.50;2.13;;;6.50;99.90;;;2.40;100.00;96838.50;5041504;28;20561;-77
2021/01/22 01:10:09;;;;;;;3.77;2.23;;;6.30;99.90;;;2.44;100.00;96857.03;5039086;28;20257;-77
2021/01/22 01:12:54;;;;;;;2.10;1.63;;;6.20;99.90;;;2.47;100.00;96861.94;5046959;28;21098;-77
2021/01/22 01:15:39;;;;;;;2.40;2.30;;;6.10;99.90;;;2.53;100.00;96863.34;5033634;28;20373;-77
2021/01/22 01:18:26;;;;;;;2.50;2.40;;;6.00;99.90;;;2.54;100.00;96882.81;5036313;28;20198;-77
2021/01/22 01:21:12;;;;;;;2.83;2.60;;;6.00;99.90;;;2.56;100.00;96893.75;5034477;28;20759;-77
2021/01/22 01:23:58;;;;;;;3.73;2.97;;;5.90;99.90;;;2.60;100.00;96921.56;5052575;28;20234;-77
2021/01/22 01:26:43;;;;;;;3.73;3.43;;;5.80;99.90;;;2.58;100.00;96943.81;5038065;28;20746;-77
2021/01/22 01:29:28;;;;;;;4.33;3.70;;;5.70;99.90;;;2.55;100.00;96955.88;5043421;28;20218;-77
2021/01/22 01:32:13;;;;;;;4.20;3.80;;;5.70;99.90;;;2.53;100.00;96976.38;5048241;28;20589;-76
2021/01/22 01:34:58;;;;;;;4.30;3.90;;;5.60;99.90;;;2.58;100.00;97010.13;5056325;28;20249;-77
2021/01/22 01:37:44;;;;;;;5.57;4.27;;;5.60;99.90;;;2.58;100.00;97037.34;5055403;28;20223;-77
2021/01/22 01:40:30;;;;;;;6.77;5.50;;;5.50;99.90;;;2.59;100.00;97092.59;5055987;28;20222;-77
2021/01/22 01:43:15;;;;;;;8.10;5.40;;;5.50;99.90;;;2.55;100.00;97144.66;5051025;28;20270;-77
2021/01/22 01:46:00;;;;;;;6.77;5.30;;;5.40;99.90;;;2.54;100.00;97156.59;5048851;28;20211;-77
2021/01/22 01:48:46;;;;;;;6.83;5.23;;;5.40;99.90;;;2.56;100.00;97184.59;5044442;28;20781;-77
2021/01/22 01:51:31;;;;;;;7.73;6.03;;;5.30;99.90;;;2.57;100.00;97196.41;5051572;28;20229;-76
2021/01/22 01:54:19;;;;;;;7.90;6.37;;;5.30;99.90;;;2.57;100.00;97244.91;5049880;28;20203;-77
2021/01/22 01:57:05;;;;;;;8.67;5.20;;;5.30;99.90;;;2.59;100.00;97327.31;5053432;28;20206;-77
2021/01/22 01:59:51;;;;;;;8.00;5.67;;;5.20;99.90;;;2.55;100.00;97354.69;5045799;28;20573;-77
2021/01/22 02:02:36;;;;;;;6.50;5.60;;;5.20;99.90;;;2.52;100.00;97387.19;5046765;28;20257;-76
2021/01/22 02:05:24;;;;;;;7.17;5.77;;;5.20;99.90;;;2.57;100.00;97395.41;5044598;28;20199;-76
2021/01/22 02:08:09;;;;;;;8.93;6.37;;;5.10;99.90;;;2.53;100.00;97399.03;5052029;28;20267;-77
2021/01/22 02:10:57;;;;;;;7.93;5.97;;;5.10;99.90;;;2.46;100.00;97411.25;5050057;28;20237;-77
2021/01/22 02:13:46;;;;;;;10.57;6.20;;;5.10;99.90;;;2.47;100.00;97456.28;5047450;28;20206;-77
2021/01/22 02:16:33;;;;;;;7.53;5.97;;;5.10;99.90;;;2.48;100.00;97492.81;5053464;28;20199;-76
2021/01/22 02:19:29;;;;;;;11.23;7.17;;;5.00;99.90;;;2.48;100.00;97529.38;5047164;28;20212;-77
2021/01/22 02:22:14;;;;;;;11.93;7.40;;;5.00;99.90;;;2.51;100.00;97552.19;5038570;28;20231;-77
2021/01/22 02:25:01;;;;;;;9.53;6.87;;;5.00;99.90;;;2.51;100.00;97595.56;5038039;28;20203;-77
2021/01/22 02:27:48;;;;;;;10.73;7.43;;;4.90;99.90;;;2.45;100.00;97591.56;5044475;28;20581;-76
2021/01/22 02:30:34;;;;;;;8.70;6.67;;;4.90;99.90;;;2.43;100.00;97618.84;5048842;28;20221;-77
2021/01/22 02:33:22;;;;;;;10.90;6.90;;;4.90;99.90;;;2.47;100.00;97650.16;5037964;28;20230;-77
2021/01/22 02:36:08;;;;;;;13.80;7.93;;;4.90;99.90;;;2.45;100.00;97716.56;5051801;28;20241;-77
2021/01/22 02:39:00;;;;;;;14.87;8.27;;;4.80;99.90;;;2.46;100.00;97741.16;5039472;28;21084;-77
2021/01/22 02:41:47;;;;;;;14.23;7.93;;;4.80;99.90;;;2.40;100.00;97756.72;5053508;28;20219;-77
2021/01/22 02:44:35;;;;;;;16.37;10.63;;;4.80;99.90;;;2.52;100.00;97800.47;5047309;28;20247;-76
2021/01/22 02:47:23;;;;;;;14.53;10.07;;;4.80;99.90;;;2.52;100.00;98014.81;5037786;28;20223;-76
2021/01/22 02:50:11;;;;;;;15.43;11.47;;;4.70;99.90;;;2.46;100.00;98046.47;5044476;28;20257;-77
2021/01/22 02:53:00;;;;;;;16.97;11.33;;;4.70;99.90;;;2.41;100.00;98063.69;5054493;28;20636;-77
2021/01/22 02:55:45;;;;;;;14.17;9.83;;;4.70;99.90;;;2.40;100.00;98084.97;5042208;28;20282;-76
2021/01/22 02:58:42;;;;;;;15.13;10.40;;;4.70;99.90;;;2.46;100.00;98111.09;5035315;28;20712;-77
2021/01/22 03:01:35;;;;;;;15.30;10.73;;;4.70;99.90;;;2.28;100.00;98104.94;5040761;28;20311;-77
2021/01/22 03:04:24;;;;;;;13.93;9.70;;;4.60;99.90;;;2.12;100.00;98108.09;5050134;28;20206;-75
2021/01/22 03:07:14;;;;;;;12.33;9.70;;;4.60;99.90;;;2.07;100.00;98124.38;5045638;28;20293;-76
2021/01/22 03:10:00;;;;;;;14.00;9.60;;;4.60;99.90;;;2.08;100.00;98138.81;5048395;28;20196;-77
2021/01/22 03:12:48;;;;;;;13.97;9.50;;;4.60;99.90;;;1.99;100.00;98153.56;5052105;28;20207;-77
2021/01/22 03:15:35;;;;;;;12.93;9.60;;;4.50;99.90;;;2.00;100.00;98176.47;5038463;28;20359;-77
2021/01/22 03:18:22;;;;;;;13.73;9.73;;;4.50;99.90;;;1.99;100.00;98214.75;5042928;28;20210;-77
2021/01/22 03:21:11;;;;;;;12.97;8.40;;;4.40;99.90;;;1.92;100.00;98258.31;5046381;28;20237;-77
2021/01/22 03:23:56;;;;;;;18.00;11.17;;;4.40;99.90;;;1.93;100.00;98269.31;5038850;28;20699;-77
2021/01/22 03:26:41;;;;;;;14.40;9.90;;;4.30;99.90;;;1.95;100.00;98294.78;5047164;28;20255;-76
2021/01/22 03:29:26;;;;;;;14.20;10.00;;;4.30;99.90;;;1.78;100.00;98302.94;5049545;28;20222;-77
2021/01/22 03:32:11;;;;;;;16.40;10.10;;;4.30;99.90;;;1.84;100.00;98318.88;5047100;28;20234;-76
2021/01/22 03:34:57;;;;;;;15.50;10.40;;;4.20;99.90;;;1.91;100.00;98339.94;5037760;28;20231;-77
2021/01/22 03:37:42;;;;;;;14.67;9.50;;;4.20;99.90;;;1.80;100.00;98337.72;5043070;28;20203;-77
2021/01/22 03:40:28;;;;;;;14.43;10.37;;;4.20;99.90;;;1.85;100.00;98383.47;5053653;28;20299;-76
2021/01/22 03:43:13;;;;;;;13.37;8.70;;;4.10;99.90;;;1.89;100.00;98454.69;5066641;28;20707;-76
2021/01/22 03:45:59;;;;;;;16.27;11.23;;;4.10;99.90;;;1.90;100.00;98486.09;5055945;28;20202;-77
2021/01/22 03:48:45;;;;;;;17.63;12.20;;;4.10;99.90;;;1.92;100.00;98510.69;5050362;28;20227;-77
2021/01/22 03:51:31;;;;;;;13.20;8.53;;;4.00;99.90;;;1.99;100.00;98536.84;5057078;28;20273;-76
2021/01/22 03:54:16;;;;;;;13.47;8.20;;;4.00;99.90;;;1.90;100.00;98558.31;5056847;28;20183;-76
2021/01/22 03:57:02;;;;;;;14.33;9.10;;;4.00;99.90;;;2.04;100.00;98583.44;5064581;28;20256;-76
2021/01/22 03:59:47;;;;;;;12.93;8.83;;;4.00;99.90;;;1.98;100.00;98632.06;5062853;28;20221;-77
2021/01/22 04:02:32;;;;;;;13.20;7.93;;;4.10;99.90;;;1.89;100.00;98698.56;5050598;28;20206;-75
2021/01/22 04:05:18;;;;;;;10.33;6.63;;;3.90;99.90;;;1.82;100.00;98703.00;5040701;28;20207;-77
2021/01/22 04:08:05;;;;;;;14.57;8.63;;;4.00;99.90;;;1.89;100.00;98701.13;5051069;28;20342;-77
2021/01/22 04:10:50;;;;;;;13.67;9.17;;;3.90;99.90;;;1.91;100.00;98786.91;5043231;28;20773;-77
2021/01/22 04:13:35;;;;;;;14.33;8.43;;;3.90;99.90;;;1.72;100.00;98791.56;5052297;28;20577;-76
2021/01/22 04:16:20;;;;;;;12.10;7.43;;;3.90;99.90;;;1.81;100.00;98863.63;5051621;28;20294;-76
2021/01/22 04:19:05;;;;;;;10.53;7.37;;;3.90;99.90;;;1.79;100.00;98868.75;5033358;28;20734;-76
2021/01/22 04:21:51;;;;;;;10.00;6.77;;;3.90;99.90;;;1.81;100.00;98877.19;5048791;28;20373;-76
2021/01/22 04:24:37;;;;;;;14.53;9.53;;;3.80;99.90;;;1.83;100.00;98888.22;5046762;28;20583;-77
2021/01/22 04:27:22;;;;;;;13.47;8.30;;;3.80;99.90;;;1.76;100.00;98896.88;5052616;28;20262;-76
2021/01/22 04:30:09;;;;;;;11.13;7.60;;;3.80;99.90;;;1.64;100.00;98886.91;5033916;28;20208;-76
2021/01/22 04:32:53;;;;;;;13.00;7.23;;;3.80;99.90;;;1.72;100.00;98900.34;5036557;28;20243;-77
2021/01/22 04:35:38;;;;;;;10.23;7.13;;;3.90;99.90;;;1.65;100.00;98908.97;5035227;28;20239;-76
2021/01/22 04:38:25;;;;;;;10.33;7.70;;;3.80;99.90;;;1.71;100.00;98922.44;5045444;28;20567;-78
2021/01/22 04:41:12;;;;;;;14.17;8.50;;;3.80;99.90;;;1.79;100.00;98939.28;5041082;28;20239;-76
2021/01/22 04:43:57;;;;;;;13.20;9.03;;;3.70;99.90;;;1.95;100.00;98983.16;5033607;28;20292;-77
2021/01/22 04:46:45;;;;;;;15.37;9.47;;;3.70;99.90;;;2.00;100.00;99015.34;5031709;28;20210;-76
2021/01/22 04:49:31;;;;;;;15.87;10.60;;;3.70;99.90;;;1.94;100.00;99020.56;5041948;28;20254;-76
2021/01/22 04:52:18;;;;;;;19.10;13.07;;;3.70;99.90;;;2.09;100.00;99052.56;5033490;28;20307;-76
2021/01/22 04:55:08;;;;;;;21.17;14.17;;;3.70;99.90;;;2.16;100.00;99054.13;5037176;28;20580;-77
2021/01/22 04:57:59;;;;;;;25.47;14.87;;;3.70;99.90;;;2.30;100.00;99061.50;5036691;28;20211;-77
2021/01/22 05:00:45;;;;;;;22.50;14.57;;;3.70;99.90;;;2.39;100.00;99024.75;5046341;28;20597;-78
2021/01/22 05:03:31;;;;;;;26.30;18.17;;;3.80;99.90;;;2.34;100.00;99022.28;5041310;28;20602;-77
2021/01/22 05:06:16;;;;;;;28.57;18.93;;;3.80;99.90;;;2.33;100.00;99019.78;5053081;28;20203;-76
2021/01/22 05:09:01;;;;;;;32.23;22.63;;;3.80;99.90;;;2.37;100.00;99070.72;5053402;28;20219;-77
2021/01/22 05:11:53;;;;;;;30.20;20.10;;;3.90;99.90;;;2.42;100.00;99081.69;5056420;28;20213;-77
2021/01/22 05:14:39;;;;;;;32.03;20.73;;;3.90;99.90;;;2.36;100.00;99097.13;5045194;28;20234;-77
2021/01/22 05:17:24;;;;;;;33.97;19.27;;;4.00;99.90;;;2.45;100.00;99107.13;5054285;28;20235;-76
2021/01/22 05:20:11;;;;;;;37.83;26.87;;;3.90;99.90;;;2.41;100.00;99102.97;5047391;28;20207;-76
2021/01/22 05:22:57;;;;;;;32.43;22.53;;;4.00;99.90;;;2.16;100.00;99094.94;5050642;28;20613;-77
2021/01/22 05:25:59;;;;;;;35.27;25.07;;;4.00;99.90;;;2.13;100.00;99106.91;5045219;28;20353;-78
2021/01/22 05:28:47;;;;;;;34.47;21.90;;;4.00;99.90;;;2.05;100.00;99101.94;5040357;28;20241;-76
2021/01/22 05:31:33;;;;;;;33.57;19.90;;;4.00;99.90;;;1.99;100.00;99097.81;5037450;28;20219;-76
2021/01/22 05:34:19;;;;;;;25.20;17.73;;;4.00;99.90;;;1.83;100.00;99096.41;5040078;28;20207;-76
2021/01/22 05:37:04;;;;;;;30.33;20.83;;;4.00;99.90;;;2.00;100.00;99113.97;5035503;28;20211;-75
2021/01/22 05:40:09;;;;;;;34.57;20.53;;;4.00;99.90;;;2.22;100.00;99127.16;5039937;28;20696;-75
2021/01/22 05:42:56;;;;;;;26.43;17.00;;;4.00;99.90;;;2.16;100.00;99129.81;5038248;28;20204;-75
2021/01/22 05:45:43;;;;;;;36.33;22.83;;;4.00;99.90;;;2.18;100.00;99130.63;5033463;28;20324;-75
2021/01/22 05:48:29;;;;;;;35.27;22.63;;;4.00;99.90;;;2.19;100.00;99135.69;5040288;28;20817;-75
2021/01/22 05:51:15;;;;;;;36.93;24.23;;;4.00;99.90;;;2.28;100.00;99140.63;5036335;28;20442;-75
2021/01/22 05:54:00;;;;;;;42.33;23.93;;;4.00;99.90;;;2.43;100.00;99159.91;5039880;28;20246;-75
2021/01/22 05:56:56;;;;;;;42.57;26.80;;;4.00;99.90;;;2.48;100.00;99166.63;5040684;28;20293;-75
2021/01/22 05:59:41;;;;;;;41.60;24.53;;;4.00;99.90;;;2.57;100.00;99174.09;5041152;28;20206;-75
2021/01/22 06:02:28;;;;;;;40.13;24.20;;;4.00;99.90;;;2.65;100.00;99185.00;5033100;28;20719;-75
2021/01/22 06:05:18;;;;;;;44.23;24.50;;;4.00;99.90;;;2.72;100.00;99180.63;5033052;28;20211;-75
2021/01/22 06:08:08;;;;;;;25.30;16.10;;;4.00;99.90;;;2.71;100.00;99184.88;5046628;28;20216;-75
2021/01/22 06:10:54;;;;;;;43.03;25.10;;;4.10;99.90;;;2.64;100.00;99180.75;5046150;28;20789;-75
2021/01/22 06:13:40;;;;;;;47.13;26.73;;;4.10;99.90;;;2.70;100.00;99196.00;5053697;28;20206;-75
2021/01/22 06:16:35;;;;;;;27.63;14.47;;;4.20;99.90;;;2.60;100.00;99180.00;5038405;28;20222;-75
2021/01/22 06:19:23;;;;;;;46.27;28.20;;;4.20;99.90;;;2.51;100.00;99180.19;5046230;28;20238;-75
2021/01/22 06:22:25;;;;;;;36.10;22.37;;;4.20;99.90;;;2.60;100.00;99199.59;5040226;28;20281;-75
2021/01/22 06:25:13;;;;;;;37.43;21.67;;;4.30;99.90;;;2.48;100.00;99192.16;5047731;28;20714;-75
2021/01/22 06:28:02;;;;;;;37.43;22.53;;;4.30;99.90;;;2.37;100.00;99194.91;5037980;28;20266;-75
2021/01/22 06:30:48;;;;;;;36.53;22.27;;;4.30;99.90;;;2.20;100.00;99193.50;5041988;28;20230;-75
2021/01/22 06:33:35;;;;;;;35.70;20.67;;;4.30;99.90;;;2.20;100.00;99197.75;5043177;28;20211;-75
2021/01/22 06:36:21;;;;;;;33.30;21.27;;;4.30;99.90;;;2.14;100.00;99205.50;5039289;28;20211;-75
2021/01/22 06:39:08;;;;;;;36.13;20.50;;;4.30;99.90;;;2.12;100.00;99202.16;5039365;28;20262;-75
2021/01/22 06:41:55;;;;;;;36.83;21.33;;;4.20;99.90;;;2.18;100.00;99202.06;5042772;28;20234;-75
2021/01/22 06:44:40;;;;;;;37.83;22.13;;;4.20;99.90;;;2.10;100.00;99200.47;5043201;28;20596;-75
2021/01/22 06:47:25;;;;;;;39.47;22.97;;;4.20;99.90;;;2.01;100.00;99208.28;5043622;28;20208;-75
2021/01/22 06:50:20;;;;;;;33.10;19.87;;;4.10;99.90;;;2.04;100.00;99212.50;5041170;28;20691;-75
2021/01/22 06:53:14;;;;;;;32.10;17.20;;;4.20;99.90;;;2.13;100.00;99229.31;5039980;28;20231;-76
2021/01/22 06:56:10;;;;;;;31.70;20.47;;;4.10;99.90;;;2.12;100.00;99235.31;5039075;28;20594;-76
2021/01/22 06:58:55;;;;;;;33.70;21.07;;;4.10;99.90;;;2.09;100.00;99243.84;5033457;28;20203;-75
2021/01/22 07:01:40;;;;;;;36.63;23.47;;;4.10;99.90;;;2.10;100.00;99241.28;5040544;28;20246;-75
2021/01/22 07:04:40;;;;;;;35.50;22.50;;;4.10;99.90;;;2.07;100.00;99248.97;5042815;28;20211;-75
2021/01/22 07:07:46;;;;;;;40.43;21.90;;;4.10;99.90;;;2.04;100.00;99245.66;5041337;28;20211;-76
2021/01/22 07:11:02;;;;;;;37.47;21.67;;;4.10;99.90;;;2.05;100.00;99253.28;5035526;28;20594;-75
2021/01/22 07:13:48;;;;;;;36.00;22.43;;;4.10;99.90;;;1.99;100.00;99261.00;5038181;28;20679;-75
2021/01/22 07:16:39;;;;;;;35.37;22.03;;;4.00;99.90;;;1.95;100.00;99264.50;5034573;28;20227;-75
2021/01/22 07:19:27;;;;;;;34.60;20.10;;;4.00;99.90;;;2.00;100.00;99272.06;5035832;28;20246;-76
2021/01/22 07:22:18;;;;;;;38.73;23.70;;;4.00;99.90;;;1.99;100.00;99260.16;5033996;28;20730;-76
2021/01/22 07:25:05;;;;;;;41.90;22.07;;;4.00;99.90;;;2.06;100.00;99277.91;5030999;28;20211;-75
2021/01/22 07:27:50;;;;;;;41.17;25.00;;;4.00;99.90;;;2.05;100.00;99271.13;5042785;28;20304;-75
2021/01/22 07:30:41;;;;;;;34.83;22.63;;;4.00;99.90;;;2.00;100.00;99278.00;5036815;28;20286;-76
2021/01/22 07:33:44;;;;;;;42.47;26.07;;;3.90;99.90;;;2.12;100.00;99286.34;5036198;28;20306;-76
2021/01/22 07:36:29;;;;;;;32.17;20.90;;;4.00;99.90;;;2.11;100.00;99300.78;5037771;28;20643;-75
2021/01/22 07:39:14;;;;;;;45.87;23.53;;;3.90;99.90;;;2.14;100.00;99293.09;5033527;28;20708;-76
2021/01/22 07:42:06;;;;;;;42.90;24.03;;;3.90;99.90;;;2.04;100.00;99278.81;5035338;28;20238;-75
2021/01/22 07:44:53;;;;;;;47.07;25.03;;;3.90;99.90;;;2.12;100.00;99294.81;5031692;28;20250;-75
2021/01/22 07:47:41;;;;;;;40.97;23.70;;;4.00;99.90;;;2.14;100.00;99302.44;5044494;28;20227;-75
2021/01/22 07:50:31;;;;;;;31.97;17.33;;;4.00;99.90;;;2.13;100.00;99303.31;5032130;28;20583;-75
2021/01/22 07:53:17;;;;;;;39.27;23.70;;;3.90;99.90;;;2.14;100.00;99310.09;5043739;28;20227;-76
2021/01/22 07:56:02;;;;;;;35.07;21.30;;;3.90;99.90;;;2.13;100.00;99316.06;5034580;28;20209;-75
2021/01/22 07:58:48;;;;;;;37.53;20.90;;;3.90;99.90;;;2.03;100.00;99325.56;5047557;28;20257;-76
2021/01/22 08:01:36;;;;;;;37.00;21.97;;;3.90;99.90;;;2.08;100.00;99331.44;5030193;28;20239;-76
2021/01/22 08:04:28;;;;;;;32.33;17.77;;;4.00;99.90;;;2.08;100.00;99339.94;5032944;28;20598;-76
2021/01/22 08:07:13;;;;;;;36.67;20.67;;;4.00;99.90;;;2.22;100.00;99359.31;5032269;28;20700;-75
2021/01/22 08:09:58;;;;;;;30.03;17.43;;;4.00;99.90;;;2.23;100.00;99355.84;5038592;28;20302;-76
2021/01/22 08:12:56;;;;;;;44.00;21.30;;;3.90;99.90;;;2.29;100.00;99360.91;5046411;28;20624;-76
2021/01/22 08:15:41;;;;;;;34.60;18.50;;;4.00;99.90;;;2.31;100.00;99356.59;5045765;28;20218;-76
2021/01/22 08:18:27;;;;;;;36.87;21.37;;;4.00;99.90;;;2.30;100.00;99366.84;5037323;28;20253;-75
2021/01/22 08:21:13;;;;;;;31.13;17.17;;;4.00;99.90;;;2.36;100.00;99367.59;5047186;28;20377;-75
2021/01/22 08:23:59;;;;;;;32.30;17.97;;;4.00;99.90;;;2.41;100.00;99376.00;5045756;28;20222;-75
2021/01/22 08:26:47;;;;;;;32.97;19.60;;;4.00;99.90;;;2.42;100.00;99380.25;5031222;28;20208;-75
2021/01/22 08:29:35;;;;;;;36.30;19.73;;;4.10;99.90;;;2.46;100.00;99374.22;5036352;28;20697;-75
2021/01/22 08:32:20;;;;;;;36.07;18.50;;;4.20;99.90;;;2.46;100.00;99384.41;5046082;28;20219;-75
2021/01/22 08:35:11;;;;;;;23.90;12.90;;;4.10;99.90;;;2.55;100.00;99382.59;5032566;28;20214;-76
2021/01/22 08:37:57;;;;;;;33.93;20.77;;;4.10;99.90;;;2.58;100.00;99395.31;5041151;28;20210;-75
2021/01/22 08:40:44;;;;;;;31.97;18.53;;;4.20;99.90;;;2.64;100.00;99407.97;5049460;28;20262;-75
2021/01/22 08:43:29;;;;;;;34.00;18.70;;;4.20;99.90;;;2.60;100.00;99396.97;5049374;28;20210;-76
2021/01/22 08:46:14;;;;;;;32.33;17.87;;;4.20;99.90;;;2.67;100.00;99397.69;5041483;28;20578;-76
2021/01/22 08:49:10;;;;;;;31.20;18.10;;;4.20;99.90;;;2.78;100.00;99405.22;5049524;28;20693;-75
2021/01/22 08:51:55;;;;;;;30.37;18.27;;;4.30;99.90;;;2.92;100.00;99412.63;5033938;28;20287;-76
2021/01/22 08:54:41;;;;;;;37.87;20.53;;;4.30;99.90;;;2.94;100.00;99414.28;5036016;28;20279;-75
2021/01/22 08:57:28;;;;;;;33.30;18.57;;;4.30;99.90;;;2.98;100.00;99409.97;5047638;28;20205;-76
2021/01/22 09:00:16;;;;;;;35.10;20.23;;;4.40;99.90;;;3.00;100.00;99426.13;5050365;28;20299;-75
2021/01/22 09:03:01;;;;;;;29.23;17.17;;;4.40;99.90;;;3.08;100.00;99429.38;5049900;28;20617;-75
2021/01/22 09:05:49;;;;;;;26.83;14.33;;;4.40;99.90;;;3.15;100.00;99440.34;5030598;28;20277;-75
2021/01/22 09:08:34;;;;;;;29.50;17.80;;;4.50;99.90;;;3.27;100.00;99449.50;5049557;28;20211;-74
2021/01/22 09:11:36;;;;;;;25.67;14.60;;;4.50;99.90;;;3.40;100.00;99450.97;5049125;28;20277;-74
2021/01/22 09:14:21;;;;;;;34.90;18.47;;;4.60;99.90;;;3.53;100.00;99446.47;5035932;28;20752;-74
2021/01/22 09:17:06;;;;;;;27.67;17.43;;;4.60;99.90;;;3.74;100.00;99454.59;5036833;28;20238;-74
2021/01/22 09:20:00;;;;;;;32.20;17.97;;;4.70;99.90;;;3.74;100.00;99457.97;5048978;28;20251;-74
2021/01/22 09:22:47;;;;;;;31.17;19.10;;;4.80;99.90;;;3.73;100.00;99460.56;5038804;28;20211;-75
2021/01/22 09:25:32;;;;;;;34.90;19.63;;;4.80;99.90;;;3.64;100.00;99470.09;5039919;28;20703;-74
2021/01/22 09:28:18;;;;;;;27.77;16.40;;;4.90;99.90;;;3.60;100.00;99478.72;5033910;28;20307;-74
2021/01/22 09:31:03;;;;;;;16.17;10.33;;;5.00;99.90;;;3.55;100.00;99474.56;5041714;28;20281;-73
2021/01/22 09:33:48;;;;;;;23.43;14.47;;;5.10;99.90;;;3.59;100.00;99483.84;5036866;28;20304;-74
2021/01/22 09:36:33;;;;;;;19.83;12.90;;;5.20;99.90;;;3.69;100.00;99477.69;5036174;28;20338;-76
2021/01/22 09:39:18;;;;;;;20.57;13.53;;;5.20;99.90;;;3.77;100.00;99487.78;5044646;28;20741;-76
2021/01/22 09:42:05;;;;;;;25.43;15.00;;;5.30;99.90;;;4.03;100.00;99482.97;5043093;28;20766;-74
2021/01/22 09:44:51;;;;;;;22.20;14.60;;;5.40;99.90;;;4.20;100.00;99485.19;5038338;28;20295;-75
2021/01/22 09:47:36;;;;;;;24.30;13.97;;;5.40;99.90;;;4.22;100.00;99487.69;5037313;28;20219;-77
2021/01/22 09:50:21;;;;;;;21.17;12.87;;;5.50;99.90;;;4.01;100.00;99479.59;5042791;28;20865;-76
2021/01/22 09:53:06;;;;;;;16.63;11.70;;;5.60;99.90;;;4.12;100.00;99487.06;5038977;28;20198;-75
2021/01/22 09:55:52;;;;;;;19.90;12.00;;;5.70;99.90;;;4.04;100.00;99499.16;5047576;28;20250;-75
2021/01/22 09:58:40;;;;;;;18.77;10.77;;;5.80;99.90;;;3.87;100.00;99489.28;5046907;28;20253;-75
2021/01/22 10:01:26;;;;;;;17.10;10.37;;;5.90;99.90;;;3.76;100.00;99494.59;5051698;28;20234;-76
2021/01/22 10:04:11;;;;;;;18.27;9.90;;;6.00;99.90;;;3.92;100.00;99495.13;5052632;28;20199;-76
2021/01/22 10:06:56;;;;;;;18.97;10.50;;;6.10;99.90;;;4.61;100.00;99497.97;5041565;28;20210;-76
2021/01/22 10:09:41;;;;;;;20.70;11.57;;;6.10;99.90;;;5.08;100.00;99513.13;5036641;28;20350;-76
2021/01/22 10:12:26;;;;;;;17.17;11.17;;;6.20;99.90;;;5.01;100.00;99491.06;5037470;28;20278;-77
2021/01/22 10:15:13;;;;;;;19.13;10.63;;;6.30;99.90;;;4.95;100.00;99484.38;5041304;28;20207;-75
2021/01/22 10:17:59;;;;;;;18.30;10.47;;;6.40;99.90;;;4.96;100.00;99482.63;5040641;28;20279;-77
2021/01/22 10:20:49;;;;;;;13.60;7.23;;;6.60;99.90;;;5.28;100.00;99486.97;5052011;28;20281;-75
2021/01/22 10:23:34;;;;;;;18.03;9.20;;;6.70;99.90;;;6.12;100.00;99495.88;5058317;28;20621;-76
2021/01/22 10:26:22;;;;;;;16.33;8.93;;;6.90;99.90;;;6.37;100.00;99487.44;5061475;28;20202;-75
2021/01/22 10:29:07;;;;;;;15.07;7.90;;;7.10;99.90;;;6.05;100.00;99466.94;5063537;28;20211;-75
2021/01/22 10:31:52;;;;;;;12.47;6.53;;;7.20;99.90;;;6.17;100.00;99462.34;5060924;28;20219;-75
2021/01/22 10:34:38;;;;;;;13.50;7.30;;;7.50;99.90;;;6.87;100.00;99464.47;5060768;28;20268;-76
2021/01/22 10:37:23;;;;;;;12.60;6.03;;;7.70;99.90;;;7.42;100.00;99459.22;5063800;28;20212;-77
2021/01/22 10:40:11;;;;;;;13.40;7.63;;;7.90;99.90;;;8.01;100.00;99450.22;5066713;28;20252;-76
2021/01/22 10:42:56;;;;;;;13.30;6.90;;;8.20;99.90;;;7.48;100.00;99429.88;5046328;28;20563;-76
2021/01/22 10:45:42;;;;;;;9.43;6.47;;;8.50;99.90;;;7.35;100.00;99424.31;5040447;28;20619;-76
2021/01/22 10:48:27;;;;;;;9.30;6.13;;;8.90;99.90;;;7.64;100.00;99425.84;5036515;28;20261;-76
2021/01/22 10:51:13;;;;;;;10.30;6.57;;;9.20;99.90;;;8.64;100.00;99433.31;5040861;28;20253;-76
2021/01/22 10:53:58;;;;;;;10.80;6.50;;;9.60;99.90;;;9.36;100.00;99432.03;5038459;28;20250;-76
2021/01/22 10:56:43;;;;;;;9.80;6.40;;;9.90;99.90;;;9.38;100.00;99414.75;5046068;28;20211;-76
2021/01/22 10:59:29;;;;;;;11.07;6.20;;;10.30;99.90;;;10.57;100.00;99406.78;5034508;28;20246;-76
2021/01/22 11:02:14;;;;;;;10.33;6.40;;;10.80;99.90;;;10.25;100.00;99329.84;5041469;28;20584;-76
2021/01/22 11:04:59;;;;;;;9.80;5.50;;;11.20;99.90;;;10.64;100.00;99266.75;5046280;28;20214;-76
2021/01/22 11:07:45;;;;;;;13.67;5.77;;;11.70;99.90;;;11.16;100.00;99213.19;5044940;28;20345;-76
2021/01/22 11:10:30;;;;;;;7.43;4.40;;;12.30;99.90;;;10.90;100.00;99100.78;5043001;28;20222;-76
2021/01/22 11:13:15;;;;;;;9.60;5.23;;;12.80;99.90;;;10.97;100.00;99050.34;5043016;28;20318;-77
2021/01/22 11:16:01;;;;;;;10.17;5.30;;;13.40;99.90;;;11.95;100.00;99066.38;5042701;28;20214;-76
2021/01/22 11:18:46;;;;;;;12.17;5.40;;;14.00;99.90;;;11.88;100.00;98832.66;5037480;28;20277;-76
2021/01/22 11:21:33;;;;;;;8.73;4.33;;;14.50;99.90;;;10.05;100.00;98536.88;5042801;28;20262;-76
2021/01/22 11:24:19;;;;;;;8.83;4.50;;;15.00;99.90;;;8.98;100.00;98592.00;5038998;28;20226;-76
2021/01/22 11:27:04;;;;;;;9.40;4.30;;;15.30;99.90;;;9.79;100.00;98715.69;5033392;28;20210;-76
2021/01/22 11:29:49;;;;;;;10.27;4.87;;;15.60;99.90;;;9.37;100.00;98526.19;5037662;28;20238;-76
2021/01/22 11:32:35;;;;;;;9.97;5.03;;;15.70;99.90;;;9.58;100.00;98569.75;5042823;28;20238;-76
2021/01/22 11:35:20;;;;;;;10.90;4.47;;;15.80;99.90;;;8.49;100.00;98430.59;5033252;28;20203;-76
2021/01/22 11:38:06;;;;;;;6.30;4.53;;;15.80;99.90;;;7.78;100.00;98400.94;5030369;28;20309;-75
2021/01/22 11:40:52;;;;;;;11.00;5.40;;;15.80;99.90;;;8.03;100.00;98425.34;5040153;28;20227;-76